createdAt,value
2023-01-06T01:10:21.830Z,1.10
2023-01-06T01:49:53.889Z,1.10
2023-01-06T02:13:41.828Z,1.00
2023-01-06T02:32:14.382Z,0.80
2023-01-06T03:25:22.236Z,1.10
2023-01-06T03:41:58.905Z,1.80
2023-01-06T03:45:40.168Z,1.90
2023-01-06T03:49:25.539Z,1.90
2023-01-06T04:07:57.131Z,1.70
2023-01-06T04:38:25.354Z,1.50
2023-01-06T04:42:41.593Z,1.70
2023-01-06T04:50:42.736Z,1.50
2023-01-06T05:30:02.765Z,2.20
2023-01-06T06:24:10.542Z,3.30
2023-01-06T06:35:44.301Z,2.60
2023-01-06T06:45:58.895Z,2.40
2023-01-06T06:48:57.499Z,2.70
2023-01-06T06:52:36.655Z,2.30
2023-01-06T06:55:30.353Z,2.40
2023-01-06T06:58:31.660Z,2.50
2023-01-06T07:01:10.619Z,2.40
2023-01-06T07:03:50.537Z,2.10
2023-01-06T07:06:34.007Z,2.00
2023-01-06T07:09:10.371Z,3.00
2023-01-06T07:12:13.361Z,2.30
2023-01-06T07:15:29.562Z,2.10
2023-01-06T07:18:45.752Z,2.20
2023-01-06T07:25:54.321Z,2.40
2023-01-06T07:28:24.705Z,2.80
2023-01-06T07:30:55.482Z,2.60
2023-01-06T07:33:26.236Z,2.80
2023-01-06T07:35:58.378Z,2.50
2023-01-06T07:38:28.772Z,2.90
2023-01-06T07:41:03.234Z,2.60
2023-01-06T07:43:34.334Z,2.40
2023-01-06T07:46:06.517Z,3.20
2023-01-06T07:48:37.561Z,2.50
2023-01-06T07:51:08.119Z,2.40
2023-01-06T07:53:38.599Z,2.20
2023-01-06T07:56:11.241Z,2.20
2023-01-06T07:58:41.647Z,2.60
2023-01-06T08:01:12.571Z,2.20
2023-01-06T08:03:42.861Z,3.50
2023-01-06T08:06:13.940Z,3.60
2023-01-06T08:08:44.260Z,2.90
2023-01-06T08:11:16.832Z,3.00
2023-01-06T08:13:47.385Z,3.60
2023-01-06T08:16:17.882Z,2.90
2023-01-06T08:18:48.291Z,2.90
2023-01-06T08:21:18.571Z,3.20
2023-01-06T08:23:49.239Z,3.20
2023-01-06T08:26:20.656Z,2.60
2023-01-06T08:28:51.743Z,2.50
2023-01-06T08:31:22.879Z,2.20
2023-01-06T08:33:53.669Z,2.80
2023-01-06T08:36:28.113Z,2.40
2023-01-06T08:39:00.417Z,2.20
2023-01-06T08:41:32.775Z,1.90
2023-01-06T08:44:05.226Z,2.90
2023-01-06T08:46:37.382Z,2.20
2023-01-06T08:49:07.713Z,1.90
2023-01-06T08:51:38.060Z,2.40
2023-01-06T08:54:09.792Z,2.00
2023-01-06T08:56:43.487Z,2.40
2023-01-06T08:59:16.217Z,2.00
2023-01-06T09:01:47.000Z,2.80
2023-01-06T09:04:17.600Z,2.10
2023-01-06T09:06:49.133Z,2.60
2023-01-06T09:09:19.656Z,2.50
2023-01-06T09:11:49.956Z,2.20
2023-01-06T09:14:20.410Z,2.20
2023-01-06T09:16:50.937Z,2.70
2023-01-06T09:19:21.495Z,2.00
2023-01-06T09:21:51.865Z,2.20
2023-01-06T09:24:22.261Z,1.90
2023-01-06T09:26:52.690Z,2.30
2023-01-06T09:29:23.161Z,2.30
2023-01-06T09:31:53.572Z,1.90
2023-01-06T09:34:23.956Z,2.50
2023-01-06T09:36:54.248Z,3.00
2023-01-06T09:39:24.653Z,2.80
2023-01-06T09:42:14.964Z,2.40
2023-01-06T09:44:50.278Z,2.40
2023-01-06T09:47:27.213Z,2.20
2023-01-06T09:50:03.612Z,2.20
2023-01-06T09:52:40.749Z,1.60
2023-01-06T09:55:17.955Z,2.50
2023-01-06T09:57:53.243Z,2.30
2023-01-06T10:00:34.765Z,2.20
2023-01-06T10:03:05.792Z,2.40
2023-01-06T10:05:46.373Z,2.40
2023-01-06T10:08:24.154Z,2.60
2023-01-06T10:11:09.258Z,2.40
2023-01-06T10:13:54.020Z,2.90
2023-01-06T10:16:34.791Z,2.30
2023-01-06T10:19:17.888Z,2.60
2023-01-06T10:21:58.184Z,2.60
2023-01-06T10:24:40.649Z,2.20
2023-01-06T10:27:22.131Z,2.70
2023-01-06T10:29:55.922Z,2.50
2023-01-06T10:32:33.357Z,2.20
2023-01-06T10:35:04.486Z,2.60
2023-01-06T10:37:41.179Z,2.90
2023-01-06T10:40:21.517Z,2.30
2023-01-06T10:42:57.752Z,1.70
2023-01-06T10:45:33.623Z,2.50
2023-01-06T10:48:07.139Z,2.40
2023-01-06T10:50:40.632Z,1.90
2023-01-06T10:53:13.407Z,2.50
2023-01-06T10:55:48.419Z,2.90
2023-01-06T10:58:25.579Z,2.60
2023-01-06T11:01:08.038Z,2.80
2023-01-06T11:03:42.977Z,2.70
2023-01-06T11:06:24.835Z,2.10
2023-01-06T11:08:56.229Z,2.30
2023-01-06T11:11:28.643Z,3.10
2023-01-06T11:14:04.824Z,3.30
2023-01-06T11:16:38.825Z,3.30
2023-01-06T11:19:38.550Z,2.80
2023-01-06T11:22:36.003Z,3.30
2023-01-06T11:25:30.454Z,2.60
2023-01-06T11:28:19.086Z,2.30
2023-01-06T11:30:53.688Z,2.90
2023-01-06T11:33:34.126Z,3.00
2023-01-06T11:36:15.117Z,2.90
2023-01-06T11:39:15.507Z,3.20
2023-01-06T11:42:12.641Z,3.20
2023-01-06T11:44:48.164Z,3.60
2023-01-06T11:47:24.865Z,3.40
2023-01-06T11:49:59.756Z,3.20
2023-01-06T11:53:01.596Z,3.20
2023-01-06T11:56:08.124Z,3.30
2023-01-06T11:59:11.967Z,3.00
2023-01-06T12:02:03.234Z,3.40
2023-01-06T12:04:57.682Z,3.70
2023-01-06T12:07:36.553Z,3.50
2023-01-06T12:10:24.612Z,4.40
2023-01-06T12:12:59.094Z,4.00
2023-01-06T12:15:34.370Z,4.30
2023-01-06T12:18:20.884Z,4.30
2023-01-06T12:21:20.631Z,4.50
2023-01-06T12:24:03.663Z,4.20
2023-01-06T12:26:36.273Z,4.60
2023-01-06T12:29:31.386Z,3.90
2023-01-06T12:32:29.046Z,4.30
2023-01-06T12:35:04.513Z,3.70
2023-01-06T12:37:49.179Z,3.80
2023-01-06T12:40:45.653Z,4.70
2023-01-06T12:43:45.778Z,5.00
2023-01-06T12:46:23.265Z,5.90
2023-01-06T12:49:26.195Z,5.10
2023-01-06T12:52:05.789Z,5.40
2023-01-06T12:55:03.301Z,4.80
2023-01-06T12:58:06.200Z,5.30
2023-01-06T13:01:21.391Z,4.20
2023-01-06T13:04:20.791Z,5.00
2023-01-06T13:07:12.041Z,5.60
2023-01-06T13:10:16.748Z,6.30
2023-01-06T13:13:35.582Z,5.10
2023-01-06T13:16:20.998Z,5.80
2023-01-06T13:19:04.368Z,5.20
2023-01-06T13:21:39.266Z,5.40
2023-01-06T13:24:29.597Z,6.00
2023-01-06T13:27:17.757Z,6.10
2023-01-06T13:30:00.781Z,6.00
2023-01-06T13:32:51.596Z,7.10
2023-01-06T13:35:53.505Z,5.80
2023-01-06T13:38:45.097Z,8.70
2023-01-06T13:41:39.534Z,6.20
2023-01-06T13:44:24.756Z,8.40
2023-01-06T13:47:04.516Z,7.00
2023-01-06T13:53:07.921Z,8.00
2023-01-06T13:56:26.005Z,7.80
2023-01-06T13:59:29.114Z,8.90
2023-01-06T14:02:46.781Z,8.00
2023-01-06T14:06:08.139Z,7.80
2023-01-06T14:09:04.120Z,7.90
2023-01-06T14:12:03.733Z,7.70
2023-01-06T14:15:12.819Z,8.20
2023-01-06T14:17:55.491Z,7.70
2023-01-06T14:20:40.751Z,7.40
2023-01-06T14:23:24.055Z,8.10
2023-01-06T14:26:17.391Z,8.10
2023-01-06T14:28:59.446Z,7.10
2023-01-06T14:31:52.360Z,8.00
2023-01-06T14:34:25.295Z,7.60
2023-01-06T14:37:28.856Z,6.30
2023-01-06T14:40:11.253Z,8.00
2023-01-06T14:43:04.224Z,8.90
2023-01-06T14:45:59.273Z,9.20
2023-01-06T14:48:51.970Z,9.10
2023-01-06T14:51:24.235Z,7.90
2023-01-06T14:54:29.496Z,8.40
2023-01-06T14:57:04.382Z,8.80
2023-01-06T15:00:29.837Z,9.10
2023-01-06T15:06:36.473Z,9.60
2023-01-06T15:09:37.152Z,8.20
2023-01-06T15:12:49.391Z,7.60
2023-01-06T15:15:31.778Z,8.00
2023-01-06T15:18:19.184Z,9.50
2023-01-06T15:21:16.858Z,10.00
2023-01-06T15:24:21.445Z,10.00
2023-01-06T15:27:16.763Z,8.70
2023-01-06T15:30:21.692Z,9.40
2023-01-06T15:33:01.311Z,8.40
2023-01-06T15:35:41.443Z,8.00
2023-01-06T15:38:26.336Z,8.70
2023-01-06T15:40:59.237Z,8.70
2023-01-06T15:43:48.071Z,9.00
2023-01-06T15:46:24.126Z,9.10
2023-01-06T15:49:04.171Z,7.60
2023-01-06T15:55:35.586Z,6.70
2023-01-06T15:58:37.489Z,6.70
2023-01-06T16:01:35.319Z,6.60
2023-01-06T16:04:51.068Z,7.50
2023-01-06T16:07:45.758Z,6.30
2023-01-06T16:10:46.694Z,5.50
2023-01-06T16:14:04.817Z,5.80
2023-01-06T16:17:15.043Z,5.30
2023-01-06T16:20:04.665Z,5.00
2023-01-06T16:23:02.376Z,5.40
2023-01-06T16:29:48.762Z,5.20
2023-01-06T16:32:51.631Z,4.60
2023-01-06T16:35:39.701Z,5.80
2023-01-06T16:38:39.860Z,5.00
2023-01-06T16:41:38.077Z,5.50
2023-01-06T16:44:46.069Z,5.60
2023-01-06T16:48:02.404Z,5.60
2023-01-06T16:53:47.927Z,5.50
2023-01-06T16:56:52.949Z,5.40
2023-01-06T16:59:57.072Z,5.10
2023-01-06T17:03:13.094Z,5.60
2023-01-06T17:06:21.395Z,5.10
2023-01-06T17:09:23.024Z,5.40
2023-01-06T17:12:46.688Z,3.50
2023-01-06T17:15:55.492Z,5.00
2023-01-06T17:18:55.260Z,5.20
2023-01-06T17:21:55.583Z,4.90
2023-01-06T17:28:19.422Z,3.80
2023-01-06T17:31:25.870Z,4.30
2023-01-06T17:34:22.301Z,3.30
2023-01-06T17:37:30.936Z,3.40
2023-01-06T17:43:47.422Z,2.80
2023-01-06T17:46:56.500Z,2.40
2023-01-06T17:49:51.776Z,3.00
2023-01-06T17:52:34.749Z,3.30
2023-01-06T17:55:57.723Z,2.40
2023-01-06T17:58:41.981Z,2.90
2023-01-06T18:01:31.347Z,2.80
2023-01-06T18:04:33.021Z,2.80
2023-01-06T18:07:36.824Z,2.80
2023-01-06T18:10:40.740Z,2.40
2023-01-06T18:13:43.433Z,3.10
2023-01-06T18:16:43.351Z,3.00
2023-01-06T18:19:57.736Z,2.80
2023-01-06T18:22:47.380Z,3.00
2023-01-06T18:26:24.360Z,2.90
2023-01-06T18:29:25.518Z,2.80
2023-01-06T18:32:37.053Z,3.60
2023-01-06T18:35:19.019Z,3.80
2023-01-06T18:38:00.431Z,3.20
2023-01-06T18:41:26.087Z,3.00
2023-01-06T18:44:49.807Z,3.30
2023-01-06T18:48:22.201Z,2.60
2023-01-06T18:51:59.770Z,2.80
2023-01-06T18:55:26.095Z,2.60
2023-01-06T18:59:07.081Z,2.40
2023-01-06T19:09:38.983Z,2.00
2023-01-06T19:12:57.067Z,2.10
2023-01-06T19:16:18.076Z,1.90
2023-01-06T19:22:52.941Z,2.10
2023-01-06T19:29:55.636Z,1.90
2023-01-06T19:37:02.602Z,2.10
2023-01-06T19:40:26.685Z,2.60
2023-01-06T19:47:45.580Z,2.20
2023-01-06T19:54:59.773Z,2.10
2023-01-06T20:01:43.760Z,2.10
2023-01-06T20:14:54.570Z,2.10
2023-01-06T20:17:57.982Z,1.90
2023-01-06T20:24:21.200Z,2.00
2023-01-06T20:27:26.704Z,2.00
2023-01-06T20:30:15.027Z,2.10
2023-01-06T20:33:35.400Z,1.80
2023-01-06T20:36:22.839Z,1.70
2023-01-06T20:39:32.758Z,2.00
2023-01-06T20:46:37.216Z,2.20
2023-01-06T20:53:24.173Z,2.30
2023-01-06T21:07:17.830Z,2.40
2023-01-06T21:16:27.738Z,2.00
2023-01-06T21:19:28.607Z,2.10
2023-01-06T21:22:39.247Z,2.10
2023-01-06T21:25:46.575Z,2.30
2023-01-06T21:28:53.809Z,1.70
2023-01-06T21:31:42.390Z,2.30
2023-01-06T21:34:49.767Z,1.70
2023-01-06T21:37:52.441Z,2.20
2023-01-06T21:40:48.651Z,2.20
2023-01-06T21:43:44.826Z,1.80
2023-01-06T21:47:01.363Z,2.20
2023-01-06T21:49:44.145Z,2.10
2023-01-06T21:52:26.093Z,2.20
2023-01-06T21:55:17.644Z,2.10
2023-01-06T21:58:31.557Z,2.00
2023-01-06T22:01:38.242Z,2.00
2023-01-06T22:04:41.453Z,1.80
2023-01-06T22:07:19.623Z,1.60
2023-01-06T22:10:24.997Z,1.70
2023-01-06T22:13:34.608Z,1.50
2023-01-06T22:16:18.406Z,2.00
2023-01-06T22:19:17.773Z,1.90
2023-01-06T22:22:24.493Z,2.00
2023-01-06T22:25:28.591Z,1.90
2023-01-06T22:29:00.682Z,1.80
2023-01-06T22:31:41.645Z,2.40
2023-01-06T22:34:40.037Z,1.90
2023-01-06T22:37:31.833Z,2.20
2023-01-06T22:40:11.084Z,2.20
2023-01-06T22:42:47.418Z,2.20
2023-01-06T22:47:52.679Z,1.70
2023-01-06T22:50:26.402Z,2.00
2023-01-06T22:53:00.157Z,1.80
2023-01-06T22:55:32.697Z,1.90
2023-01-06T22:58:04.919Z,2.60
2023-01-06T23:00:35.907Z,2.20
2023-01-06T23:03:08.009Z,2.40
2023-01-06T23:05:43.525Z,2.70
2023-01-06T23:08:26.579Z,2.80
2023-01-06T23:11:08.136Z,2.80
2023-01-06T23:13:50.825Z,2.60
2023-01-06T23:16:31.040Z,2.50
2023-01-06T23:19:10.777Z,2.40
2023-01-06T23:21:53.760Z,2.70
2023-01-06T23:24:47.818Z,2.80
2023-01-06T23:27:21.792Z,2.20
2023-01-06T23:29:57.574Z,2.40
2023-01-06T23:32:53.443Z,2.50
2023-01-06T23:35:47.829Z,3.00
2023-01-06T23:38:49.591Z,2.40
2023-01-06T23:41:43.363Z,3.10
2023-01-06T23:44:38.788Z,3.10
2023-01-06T23:47:12.833Z,3.40
2023-01-06T23:50:15.675Z,3.10
2023-01-06T23:53:13.714Z,2.70
2023-01-06T23:56:13.662Z,3.10
2023-01-06T23:59:12.726Z,2.80
